Brive-Souillac

LFSL · Corrèze, Nouvelle-Aquitaine, 法国

2024年5月25日 17:002024年5月26日 02:00有效
时间
星期六
17:00
星期六
18:00
星期六
19:00
星期六
20:00
星期六
21:00
星期六
22:00
星期六
23:00
星期日
00:00
星期日
01:00
代码
VFR
VFR
VFR
VFR
VFR
VFR
VFR
VFR
VFR
天气
天空晴朗
天空晴朗
天空晴朗
天空晴朗
天空晴朗
天空晴朗
天空晴朗
天空晴朗
天空晴朗
能见度
10 km+
10 km+
10 km+
10 km+
10 km+
10 km+
10 km+
10 km+
10 km+
天花板
-
-
-
-
-
-
-
-
-
160°
160°
160°
160°
160°
160°
160°
160°
160°
160°
160°
160°
160°
160°
160°
160°
160°
160°
速度
5 kt
5 kt
5 kt
5 kt
5 kt
5 kt
5 kt
5 kt
5 kt
阵风
温度/星期日
21:27

原版的

TAF LFSL 251400Z 2515/2524 16005KT CAVOK

TAF Brive-Souillac

Brive-Souillac是,法国中的中型机场。 该机场位于纬度45,04010和经度1,48438。 该机场有一条跑道: 11/29. 本场的ICAO机场代码为LFSL。 该机场的IATA代码为BVE。 机场在Bordeaux FIR中。

该航空气象观测是针对Brive-Souillac在2024年5月25日 16:00, 当地时间进行的。 从2024年5月25日 17:00到2024年5月26日 02:00, 当地时间有效.

预报

  • 在星期六 17:00和星期日 02:00之间

    • 风: 风来自160°方向,速度为5 kt。
    • CAVOK: 天气为CAVOK。这意味着在5.000 ft或MSA(最低安全高度)以下(以较高者为准)以下没有云。这也意味着没有观测到积雨云或高耸的积云,可见度为10 km 或者更多或更高。此外,不会有雾,降雨或其他重要天气。

白天

今天,太阳从06:14升起,在21:27降落。 这适用于Brive-Souillac,世界夏令时可能有所不同。 当地时间与世界标准时间之间的时差为+2 小时。 夏令时目前正在进行中。

报告变更